Time;durP1;ratioP1;P1;durP2;ratioP2;P2;SDS_P1;SDS_P2;PMS_P1;PMS_P2;Temp;Humidity;BMP_temperature;BMP_pressure;BME280_temperature;BME280_humidity;BME280_pressure;Samples;Min_cycle;Max_cycle;Signal;HPM_P1;HPM_P2
2021/10/03 00:00:15;;;;;;;3.42;2.90;;;18.10;99.90;;;;;;5073380;28;20577;-60
2021/10/03 00:02:45;;;;;;;5.18;3.30;;;18.10;99.90;;;;;;5073234;28;20638;-59
2021/10/03 00:05:13;;;;;;;5.22;3.00;;;18.10;99.90;;;;;;5073397;28;20232;-60
2021/10/03 00:07:41;;;;;;;3.60;2.92;;;18.10;99.90;;;;;;5073302;28;20647;-60
2021/10/03 00:10:09;;;;;;;3.70;2.90;;;18.10;99.90;;;;;;5073234;28;20207;-59
2021/10/03 00:12:36;;;;;;;4.65;2.92;;;18.00;99.90;;;;;;5073261;28;20262;-59
2021/10/03 00:15:03;;;;;;;3.92;2.88;;;18.00;99.90;;;;;;5073414;28;20713;-60
2021/10/03 00:17:30;;;;;;;3.20;2.90;;;18.00;99.90;;;;;;5073063;28;20216;-61
2021/10/03 00:19:59;;;;;;;4.47;3.00;;;18.00;99.90;;;;;;5073057;28;20216;-60
2021/10/03 00:22:26;;;;;;;4.68;2.90;;;17.90;99.90;;;;;;5072977;28;20201;-60
2021/10/03 00:24:53;;;;;;;3.38;2.95;;;17.80;99.90;;;;;;5073344;28;20268;-58
2021/10/03 00:27:20;;;;;;;3.95;3.33;;;17.70;99.90;;;;;;5073057;28;20205;-59
2021/10/03 00:29:47;;;;;;;4.57;2.70;;;17.60;99.90;;;;;;5072781;28;20208;-58
2021/10/03 00:32:14;;;;;;;3.30;2.95;;;17.60;99.90;;;;;;5073020;28;20228;-59
2021/10/03 00:34:41;;;;;;;5.00;2.90;;;17.70;99.90;;;;;;5072955;28;20275;-58
2021/10/03 00:37:09;;;;;;;3.53;2.90;;;17.70;99.90;;;;;;5073465;28;20258;-57
2021/10/03 00:39:35;;;;;;;4.18;3.25;;;17.70;99.90;;;;;;5073466;28;20204;-57
2021/10/03 00:42:03;;;;;;;3.78;3.40;;;17.60;99.90;;;;;;5072859;28;20204;-58
2021/10/03 00:44:30;;;;;;;4.00;3.03;;;17.60;99.90;;;;;;5072666;28;20253;-57
2021/10/03 00:46:58;;;;;;;3.47;3.05;;;17.50;99.90;;;;;;5072990;28;20205;-57
2021/10/03 00:49:24;;;;;;;3.15;2.85;;;17.50;99.90;;;;;;5073312;28;20220;-58
2021/10/03 00:51:51;;;;;;;3.30;2.97;;;17.50;99.90;;;;;;5073237;28;20224;-57
2021/10/03 00:54:19;;;;;;;4.53;3.13;;;17.40;99.90;;;;;;5072980;28;20252;-59
2021/10/03 00:56:48;;;;;;;4.07;2.73;;;17.40;99.90;;;;;;5073102;28;20201;-58
2021/10/03 00:59:15;;;;;;;3.30;2.83;;;17.40;99.90;;;;;;5073521;28;20286;-57
2021/10/03 01:01:41;;;;;;;4.03;2.77;;;17.40;99.90;;;;;;5074317;28;20201;-57
2021/10/03 01:04:08;;;;;;;3.37;3.07;;;17.30;99.90;;;;;;5072649;28;20232;-58
2021/10/03 01:06:35;;;;;;;3.37;2.80;;;17.30;99.90;;;;;;5072473;28;20217;-58
2021/10/03 01:09:03;;;;;;;3.40;3.10;;;17.30;99.90;;;;;;5072408;28;20204;-58
2021/10/03 01:11:31;;;;;;;3.60;3.10;;;17.30;99.90;;;;;;5072586;28;20227;-57
2021/10/03 01:13:58;;;;;;;3.70;3.10;;;17.30;99.90;;;;;;5071687;28;20647;-57
2021/10/03 01:16:25;;;;;;;5.73;3.20;;;17.30;99.90;;;;;;5071879;28;20209;-58
2021/10/03 01:18:55;;;;;;;4.90;2.90;;;17.40;99.90;;;;;;5071575;28;20238;-58
2021/10/03 01:21:23;;;;;;;3.50;2.90;;;17.30;99.90;;;;;;5071846;28;20452;-58
2021/10/03 01:23:53;;;;;;;3.50;2.80;;;17.30;99.90;;;;;;5071600;28;20278;-57
2021/10/03 01:26:20;;;;;;;4.70;3.20;;;17.30;99.90;;;;;;5071841;28;20209;-59
2021/10/03 01:28:48;;;;;;;4.23;3.17;;;17.30;99.90;;;;;;5071880;28;20204;-59
2021/10/03 01:31:15;;;;;;;3.97;2.60;;;17.30;99.90;;;;;;5071623;28;20316;-59
2021/10/03 01:33:42;;;;;;;3.67;3.00;;;17.30;99.90;;;;;;5071662;28;20640;-58
2021/10/03 01:36:09;;;;;;;3.90;2.73;;;17.30;99.90;;;;;;5071779;28;20270;-60
2021/10/03 01:38:38;;;;;;;4.33;3.10;;;17.20;99.90;;;;;;5071522;28;20263;-58
2021/10/03 01:41:05;;;;;;;6.13;3.13;;;17.20;99.90;;;;;;5071796;28;20216;-60
2021/10/03 01:43:32;;;;;;;5.60;3.20;;;17.20;99.90;;;;;;5071781;28;20266;-57
2021/10/03 01:46:01;;;;;;;3.63;2.60;;;17.10;99.90;;;;;;5071772;28;20205;-57
2021/10/03 01:48:28;;;;;;;3.13;2.37;;;17.10;99.90;;;;;;5071432;28;20240;-59
2021/10/03 01:50:57;;;;;;;3.80;2.73;;;17.00;99.90;;;;;;5071209;28;20614;-58
2021/10/03 01:53:26;;;;;;;4.43;2.50;;;17.00;99.90;;;;;;5071459;28;20209;-61
2021/10/03 01:55:55;;;;;;;3.60;2.90;;;16.90;99.90;;;;;;5073234;28;20266;-59
2021/10/03 01:58:24;;;;;;;4.00;2.80;;;17.00;99.90;;;;;;5072189;28;20603;-60
2021/10/03 02:00:53;;;;;;;2.93;2.60;;;17.00;99.90;;;;;;5071415;28;20626;-58
2021/10/03 02:03:20;;;;;;;5.50;2.80;;;17.00;99.90;;;;;;5072501;28;20519;-58
2021/10/03 02:05:47;;;;;;;3.13;2.80;;;17.00;99.90;;;;;;5071780;28;20209;-60
2021/10/03 02:08:15;;;;;;;5.13;2.90;;;17.00;99.90;;;;;;5071633;28;20216;-59
2021/10/03 02:10:44;;;;;;;2.97;2.60;;;17.00;99.90;;;;;;5070988;28;20204;-59
2021/10/03 02:13:12;;;;;;;4.93;2.90;;;16.90;99.90;;;;;;5070803;28;20711;-60
2021/10/03 02:15:41;;;;;;;3.57;2.50;;;16.90;99.90;;;;;;5071123;28;20225;-60
2021/10/03 02:18:09;;;;;;;3.47;2.60;;;16.90;99.90;;;;;;5071032;28;20208;-59
2021/10/03 02:20:36;;;;;;;2.80;2.40;;;16.80;99.90;;;;;;5071077;28;20209;-60
2021/10/03 02:23:04;;;;;;;3.20;2.60;;;16.90;99.90;;;;;;5071065;28;20201;-60
2021/10/03 02:25:31;;;;;;;2.97;2.67;;;16.90;99.90;;;;;;5070387;28;20286;-59
2021/10/03 02:27:58;;;;;;;3.40;2.83;;;16.80;99.90;;;;;;5070944;28;20737;-60
2021/10/03 02:30:26;;;;;;;2.87;2.60;;;16.80;99.90;;;;;;5070699;28;20235;-60
2021/10/03 02:32:53;;;;;;;3.60;2.90;;;16.70;99.90;;;;;;5070537;28;20232;-60
2021/10/03 02:35:20;;;;;;;3.17;2.80;;;16.80;99.90;;;;;;5070469;28;20724;-60
2021/10/03 02:37:46;;;;;;;3.07;2.50;;;16.80;99.90;;;;;;5070677;28;20227;-60
2021/10/03 02:40:16;;;;;;;2.63;2.43;;;16.80;99.90;;;;;;5070603;28;20208;-60
2021/10/03 02:42:44;;;;;;;2.47;2.28;;;16.80;99.90;;;;;;5070486;28;20211;-60
2021/10/03 02:45:11;;;;;;;3.33;2.50;;;16.80;99.90;;;;;;5070351;28;20592;-59
2021/10/03 02:47:40;;;;;;;4.07;2.50;;;16.80;99.90;;;;;;5070704;28;20346;-60
2021/10/03 02:50:08;;;;;;;2.63;2.43;;;16.90;99.90;;;;;;5070698;28;20308;-59
2021/10/03 02:52:35;;;;;;;4.90;2.40;;;16.90;99.90;;;;;;5070577;28;20229;-59
2021/10/03 02:55:01;;;;;;;3.87;2.60;;;17.00;99.90;;;;;;5070327;28;20228;-59
2021/10/03 02:57:28;;;;;;;3.33;2.70;;;17.00;99.90;;;;;;5070392;28;20672;-60
2021/10/03 02:59:55;;;;;;;2.90;2.60;;;17.00;99.90;;;;;;5070739;28;20692;-59
2021/10/03 03:02:21;;;;;;;3.10;2.80;;;17.00;99.90;;;;;;5070771;28;20223;-58
2021/10/03 03:04:49;;;;;;;3.07;2.23;;;17.00;99.90;;;;;;5070678;28;20511;-57
2021/10/03 03:07:16;;;;;;;4.40;2.70;;;17.00;99.90;;;;;;5070517;28;20200;-58
2021/10/03 03:09:43;;;;;;;2.70;2.33;;;17.00;99.90;;;;;;5070267;28;20201;-58
2021/10/03 03:12:09;;;;;;;3.43;2.30;;;16.90;99.90;;;;;;5070294;28;20221;-59
2021/10/03 03:14:36;;;;;;;2.97;2.47;;;17.00;99.90;;;;;;5070156;28;20239;-58
2021/10/03 03:17:15;;;;;;;3.17;2.00;;;17.00;99.90;;;;;;5070453;28;20201;-60
2021/10/03 03:19:42;;;;;;;3.47;2.60;;;16.90;99.90;;;;;;5070323;28;20664;-57
2021/10/03 03:22:10;;;;;;;2.30;2.10;;;17.00;99.90;;;;;;5070472;28;20201;-57
2021/10/03 03:24:36;;;;;;;2.77;2.13;;;17.00;99.90;;;;;;5073863;28;20421;-58
2021/10/03 03:27:04;;;;;;;2.60;2.40;;;17.10;99.90;;;;;;5074061;28;20216;-58
2021/10/03 03:29:31;;;;;;;2.87;2.57;;;17.10;99.90;;;;;;5074202;28;20208;-57
2021/10/03 03:31:58;;;;;;;3.90;2.57;;;17.10;99.90;;;;;;5074194;28;20286;-58
2021/10/03 03:34:25;;;;;;;2.57;2.17;;;17.20;99.90;;;;;;5073839;28;20592;-58
2021/10/03 03:36:52;;;;;;;2.80;2.20;;;17.20;99.90;;;;;;5074033;28;20209;-57
2021/10/03 03:39:20;;;;;;;2.53;2.27;;;17.20;99.90;;;;;;5073646;28;20201;-58
2021/10/03 03:41:47;;;;;;;3.63;2.27;;;17.20;99.90;;;;;;5074046;28;20201;-59
2021/10/03 03:44:14;;;;;;;2.97;2.33;;;17.30;99.90;;;;;;5073428;28;20712;-56
2021/10/03 03:46:40;;;;;;;2.57;2.17;;;17.20;99.90;;;;;;5073558;28;20270;-58
2021/10/03 03:49:07;;;;;;;2.77;2.30;;;17.30;99.90;;;;;;5073593;28;20208;-58
2021/10/03 03:51:34;;;;;;;3.00;1.90;;;17.30;99.90;;;;;;5073513;28;20265;-57
2021/10/03 03:54:01;;;;;;;2.37;2.13;;;17.40;99.90;;;;;;5073286;28;20233;-57
2021/10/03 03:56:29;;;;;;;3.67;1.80;;;17.40;99.90;;;;;;5073541;28;20208;-58
2021/10/03 03:58:55;;;;;;;3.50;2.20;;;17.50;99.90;;;;;;5073518;28;20588;-57
2021/10/03 04:01:23;;;;;;;5.60;2.17;;;17.50;99.90;;;;;;5073440;28;20213;-58
2021/10/03 04:03:49;;;;;;;2.27;2.07;;;17.50;99.90;;;;;;5073237;28;20228;-59
2021/10/03 04:06:16;;;;;;;2.83;2.03;;;17.60;99.90;;;;;;5073328;28;20205;-58
2021/10/03 04:08:43;;;;;;;3.35;2.22;;;17.60;99.90;;;;;;5073115;28;20553;-58
2021/10/03 04:11:11;;;;;;;2.90;2.23;;;17.60;99.90;;;;;;5073184;28;20695;-59
2021/10/03 04:13:39;;;;;;;2.42;2.00;;;17.60;99.90;;;;;;5073207;28;20237;-59
2021/10/03 04:16:06;;;;;;;1.85;1.75;;;17.60;99.90;;;;;;5073691;28;20216;-59
2021/10/03 04:18:33;;;;;;;2.20;2.00;;;17.60;99.90;;;;;;5073615;28;20209;-58
2021/10/03 04:21:00;;;;;;;2.90;2.20;;;17.60;99.90;;;;;;5073094;28;20235;-59
2021/10/03 04:23:26;;;;;;;4.57;2.05;;;17.60;99.90;;;;;;5073244;28;20262;-59
2021/10/03 04:25:53;;;;;;;3.75;2.40;;;17.60;99.90;;;;;;5073092;28;20217;-58
2021/10/03 04:28:20;;;;;;;4.53;2.17;;;17.50;99.90;;;;;;5073142;28;20421;-59
2021/10/03 04:30:48;;;;;;;3.67;2.30;;;17.50;99.90;;;;;;5073119;28;20204;-58
2021/10/03 04:33:15;;;;;;;2.70;2.15;;;17.40;99.90;;;;;;5073027;28;20232;-59
2021/10/03 04:35:41;;;;;;;5.18;2.40;;;17.40;99.90;;;;;;5071862;28;20731;-58
2021/10/03 04:38:08;;;;;;;2.35;2.08;;;17.40;99.90;;;;;;5073011;28;20216;-58
2021/10/03 04:40:35;;;;;;;4.70;2.03;;;17.40;99.90;;;;;;5072819;28;20212;-57
2021/10/03 04:43:02;;;;;;;3.10;2.03;;;17.50;99.90;;;;;;5072999;28;20205;-56
2021/10/03 04:45:29;;;;;;;4.63;2.08;;;17.50;99.90;;;;;;5072661;28;20224;-58
2021/10/03 04:48:00;;;;;;;3.92;2.00;;;17.60;99.90;;;;;;5072665;28;20205;-58
2021/10/03 04:50:26;;;;;;;4.88;2.10;;;17.80;99.90;;;;;;5072856;28;20193;-59
2021/10/03 04:52:53;;;;;;;2.70;2.20;;;18.10;99.90;;;;;;5072922;28;20228;-58
2021/10/03 04:55:20;;;;;;;6.68;2.28;;;18.30;99.90;;;;;;5072631;28;20232;-58
2021/10/03 04:57:47;;;;;;;2.28;2.08;;;18.50;99.90;;;;;;5072374;28;20664;-59
2021/10/03 05:00:14;;;;;;;2.40;2.00;;;18.60;99.90;;;;;;5072569;28;20219;-59
2021/10/03 05:02:42;;;;;;;2.72;2.03;;;18.70;99.90;;;;;;5072434;28;20197;-58
2021/10/03 05:05:10;;;;;;;2.42;1.85;;;18.70;99.90;;;;;;5072645;28;20649;-59
2021/10/03 05:07:37;;;;;;;4.03;2.15;;;18.70;99.90;;;;;;5072417;28;20252;-59
2021/10/03 05:10:04;;;;;;;4.50;2.40;;;18.70;99.90;;;;;;5072298;28;20208;-59
2021/10/03 05:12:32;;;;;;;3.63;2.00;;;18.70;99.90;;;;;;5072409;28;20227;-58
2021/10/03 05:14:59;;;;;;;4.18;2.13;;;18.70;99.90;;;;;;5072093;28;20667;-57
2021/10/03 05:17:26;;;;;;;2.22;2.00;;;18.70;99.90;;;;;;5072246;28;20649;-58
2021/10/03 05:19:53;;;;;;;2.63;2.22;;;18.70;99.90;;;;;;5072561;28;20215;-60
2021/10/03 05:22:22;;;;;;;4.95;2.33;;;18.70;99.90;;;;;;5072377;28;20205;-59
2021/10/03 05:24:49;;;;;;;2.47;2.20;;;18.60;99.90;;;;;;5071742;28;20297;-58
2021/10/03 05:27:15;;;;;;;2.78;2.25;;;18.60;99.90;;;;;;5073122;28;20213;-59
2021/10/03 05:29:42;;;;;;;4.38;2.50;;;18.50;99.90;;;;;;5071841;28;20664;-57
2021/10/03 05:32:09;;;;;;;3.50;2.10;;;18.40;99.90;;;;;;5072121;28;20432;-58
2021/10/03 05:34:36;;;;;;;2.10;1.90;;;18.40;99.90;;;;;;5071912;28;20244;-57
2021/10/03 05:37:03;;;;;;;6.85;2.28;;;18.40;99.90;;;;;;5072225;28;20258;-58
2021/10/03 05:39:31;;;;;;;2.80;2.30;;;18.40;99.90;;;;;;5071965;28;20201;-60
2021/10/03 05:41:58;;;;;;;2.25;1.92;;;18.40;99.90;;;;;;5071870;28;20208;-60
2021/10/03 05:44:25;;;;;;;2.63;2.20;;;18.40;99.90;;;;;;5071930;28;20237;-60
2021/10/03 05:46:52;;;;;;;4.28;2.25;;;18.50;99.90;;;;;;5071912;28;20578;-61
2021/10/03 05:49:20;;;;;;;2.58;2.10;;;18.60;99.90;;;;;;5072028;28;20201;-62
2021/10/03 05:51:47;;;;;;;2.97;1.90;;;18.60;99.90;;;;;;5072104;28;20594;-60
2021/10/03 05:54:14;;;;;;;3.05;2.30;;;18.60;99.90;;;;;;5071514;28;20229;-60
2021/10/03 05:56:42;;;;;;;2.95;1.90;;;18.70;99.90;;;;;;5071704;28;20205;-60
2021/10/03 05:59:12;;;;;;;3.78;2.20;;;18.70;99.90;;;;;;5071566;28;20664;-60
2021/10/03 06:01:39;;;;;;;2.03;1.80;;;18.70;99.90;;;;;;5071675;28;20205;-61
2021/10/03 06:04:05;;;;;;;3.58;2.40;;;18.50;99.90;;;;;;5071232;28;20460;-63
2021/10/03 06:06:32;;;;;;;2.83;2.17;;;18.50;99.90;;;;;;5071719;28;20205;-59
2021/10/03 06:08:59;;;;;;;2.20;1.88;;;18.60;99.90;;;;;;5071214;28;20205;-60
2021/10/03 06:11:26;;;;;;;5.30;2.25;;;18.70;99.90;;;;;;5071355;28;20244;-59
2021/10/03 06:13:54;;;;;;;1.98;1.77;;;18.80;99.90;;;;;;5070920;28;20232;-59
2021/10/03 06:16:21;;;;;;;4.07;2.40;;;18.90;99.90;;;;;;5071672;28;20407;-59
2021/10/03 06:18:48;;;;;;;3.45;1.83;;;19.20;99.70;;;;;;5071734;28;20211;-59
2021/10/03 06:21:15;;;;;;;6.00;2.15;;;19.30;99.20;;;;;;5073031;28;20216;-58
2021/10/03 06:23:44;;;;;;;1.92;1.73;;;19.50;98.40;;;;;;5096427;22;20728;-67
2021/10/03 06:26:12;;;;;;;1.70;1.60;;;19.70;97.90;;;;;;5052118;28;20213;-66
2021/10/03 06:28:38;;;;;;;1.98;1.70;;;19.90;97.60;;;;;;5052009;28;20233;-66
2021/10/03 06:31:07;;;;;;;4.30;1.95;;;20.10;97.20;;;;;;5052116;28;20206;-65
2021/10/03 06:33:34;;;;;;;3.30;2.03;;;20.40;97.00;;;;;;5052078;28;20643;-65
2021/10/03 06:36:01;;;;;;;1.95;1.75;;;20.60;96.70;;;;;;5051394;28;20289;-65
2021/10/03 06:38:28;;;;;;;2.53;2.03;;;20.80;96.40;;;;;;5050923;28;20220;-66
2021/10/03 06:40:54;;;;;;;3.95;2.30;;;21.00;96.20;;;;;;5051078;28;20209;-66
2021/10/03 06:43:21;;;;;;;6.00;3.30;;;21.10;95.90;;;;;;5050948;28;20606;-66
2021/10/03 06:45:48;;;;;;;4.15;2.10;;;21.40;95.80;;;;;;5050702;28;20229;-66
2021/10/03 06:48:16;;;;;;;2.00;1.67;;;21.60;95.30;;;;;;5050962;28;20210;-66
2021/10/03 06:50:43;;;;;;;2.00;1.60;;;21.90;95.00;;;;;;5051000;28;20206;-66
2021/10/03 06:53:10;;;;;;;2.25;1.85;;;22.20;94.60;;;;;;5050461;28;20222;-64
2021/10/03 06:55:36;;;;;;;3.33;2.30;;;22.40;94.40;;;;;;5051682;28;20304;-65
2021/10/03 06:58:04;;;;;;;3.67;2.58;;;22.70;94.30;;;;;;5053356;28;20202;-66
2021/10/03 07:00:31;;;;;;;3.38;2.00;;;22.90;94.20;;;;;;5055585;28;20779;-65
2021/10/03 07:02:58;;;;;;;2.75;1.90;;;23.00;93.90;;;;;;5054716;28;20233;-64
2021/10/03 07:05:26;;;;;;;2.95;2.20;;;23.00;93.90;;;;;;5054179;28;20240;-63
2021/10/03 07:07:53;;;;;;;4.18;1.70;;;23.00;93.50;;;;;;5054147;28;20213;-63
2021/10/03 07:10:19;;;;;;;2.78;1.83;;;23.00;93.60;;;;;;5054496;28;20259;-66
2021/10/03 07:12:46;;;;;;;3.03;1.90;;;23.10;93.60;;;;;;5054526;28;20222;-66
2021/10/03 07:15:13;;;;;;;3.63;2.17;;;23.20;93.50;;;;;;5053835;28;20627;-67
2021/10/03 07:17:40;;;;;;;2.20;1.70;;;23.40;93.30;;;;;;5052609;28;20209;-67
2021/10/03 07:20:08;;;;;;;3.75;2.00;;;23.50;92.20;;;;;;5054283;28;20573;-68
2021/10/03 07:22:36;;;;;;;3.08;2.67;;;23.60;92.50;;;;;;5054536;28;20202;-65
2021/10/03 07:25:03;;;;;;;4.13;2.63;;;23.70;93.40;;;;;;5053851;28;20241;-65
2021/10/03 07:27:30;;;;;;;3.08;2.25;;;23.80;93.80;;;;;;5054195;28;20201;-64
2021/10/03 07:29:56;;;;;;;4.38;2.30;;;23.80;93.70;;;;;;5053732;28;20205;-64
2021/10/03 07:32:23;;;;;;;2.75;1.67;;;23.90;93.80;;;;;;5054082;28;20201;-63
2021/10/03 07:34:50;;;;;;;5.40;1.90;;;23.90;93.70;;;;;;5053171;28;20232;-65
2021/10/03 07:37:17;;;;;;;2.20;2.00;;;23.90;93.90;;;;;;5054148;28;20206;-66
2021/10/03 07:39:45;;;;;;;2.47;1.98;;;23.80;94.40;;;;;;5053979;28;20217;-66
2021/10/03 07:42:11;;;;;;;2.40;1.90;;;23.70;95.40;;;;;;5053931;28;20213;-65
2021/10/03 07:44:38;;;;;;;2.67;2.30;;;23.50;95.90;;;;;;5053798;28;20229;-64
2021/10/03 07:47:05;;;;;;;2.15;1.95;;;23.30;96.00;;;;;;5053702;28;20212;-65
2021/10/03 07:49:32;;;;;;;3.50;2.17;;;23.20;96.70;;;;;;5053652;28;20210;-65
2021/10/03 07:51:58;;;;;;;2.25;2.05;;;23.00;96.60;;;;;;5053904;28;20232;-65
2021/10/03 07:54:25;;;;;;;3.15;2.20;;;22.90;96.80;;;;;;5053493;28;20234;-65
2021/10/03 07:56:53;;;;;;;3.63;2.08;;;22.80;97.40;;;;;;5053802;28;20212;-64
2021/10/03 07:59:20;;;;;;;3.97;2.50;;;22.60;98.20;;;;;;5045682;28;20202;-66
2021/10/03 08:01:47;;;;;;;2.67;2.20;;;22.60;98.10;;;;;;5033782;28;20214;-66
2021/10/03 08:04:13;;;;;;;4.75;2.20;;;22.60;98.20;;;;;;5034502;28;20222;-65
2021/10/03 08:06:40;;;;;;;4.63;2.17;;;22.50;98.90;;;;;;5033688;28;20210;-64
2021/10/03 08:09:07;;;;;;;2.35;2.05;;;22.40;99.20;;;;;;5032132;28;20203;-64
2021/10/03 08:11:34;;;;;;;2.78;2.08;;;22.40;99.20;;;;;;5033683;28;20210;-68
2021/10/03 08:14:02;;;;;;;3.15;2.20;;;22.30;99.30;;;;;;5033206;28;20233;-66
2021/10/03 08:16:28;;;;;;;3.65;2.17;;;22.30;99.60;;;;;;5032682;28;20669;-66
2021/10/03 08:18:57;;;;;;;3.92;3.03;;;22.30;99.60;;;;;;5033189;28;20210;-67
2021/10/03 08:21:25;;;;;;;2.38;2.17;;;22.30;99.60;;;;;;5032879;28;20693;-68
2021/10/03 08:23:51;;;;;;;2.20;2.00;;;22.20;99.80;;;;;;5032816;28;20317;-68
2021/10/03 08:26:18;;;;;;;3.97;2.75;;;22.10;99.50;;;;;;5032653;28;20210;-68
2021/10/03 08:28:45;;;;;;;3.28;2.40;;;22.10;99.70;;;;;;5032741;28;20592;-67
2021/10/03 08:31:13;;;;;;;3.55;2.40;;;22.10;99.50;;;;;;5032722;28;20210;-66
2021/10/03 08:33:40;;;;;;;2.20;1.90;;;22.00;99.00;;;;;;5032673;28;20234;-65
2021/10/03 08:36:07;;;;;;;6.38;2.13;;;21.90;97.10;;;;;;5032845;28;20206;-64
2021/10/03 08:38:34;;;;;;;2.28;2.08;;;21.80;96.00;;;;;;5032724;28;20210;-66
2021/10/03 08:41:02;;;;;;;2.13;1.70;;;21.90;95.80;;;;;;5032498;28;20666;-64
2021/10/03 08:43:29;;;;;;;2.75;1.70;;;22.00;95.20;;;;;;5032342;28;20202;-67
2021/10/03 08:45:57;;;;;;;1.83;1.63;;;22.10;95.00;;;;;;5032805;28;20234;-67
2021/10/03 08:48:26;;;;;;;4.07;1.50;;;22.10;94.70;;;;;;5032303;28;20214;-68
2021/10/03 08:50:53;;;;;;;2.90;1.80;;;22.10;94.90;;;;;;5032628;28;20209;-74
2021/10/03 08:53:19;;;;;;;3.22;2.08;;;22.10;95.10;;;;;;5032423;28;20229;-66
2021/10/03 08:55:46;;;;;;;2.28;1.90;;;22.20;96.10;;;;;;5032417;28;20235;-67
2021/10/03 08:58:13;;;;;;;2.53;2.00;;;22.10;98.30;;;;;;5032453;28;20702;-67
2021/10/03 09:00:47;;;;;;;3.63;2.05;;;22.00;98.50;;;;;;5033216;28;20206;-69
2021/10/03 09:03:17;;;;;;;4.45;2.08;;;22.00;98.50;;;;;;5033078;28;20317;-68
2021/10/03 09:05:50;;;;;;;2.30;2.03;;;21.90;98.30;;;;;;5032520;28;20234;-67
2021/10/03 09:08:18;;;;;;;5.03;2.00;;;21.90;98.50;;;;;;5032312;28;20678;-67
2021/10/03 09:10:52;;;;;;;2.45;2.03;;;21.90;98.40;;;;;;5032320;28;20592;-68
2021/10/03 09:13:20;;;;;;;7.60;4.35;;;22.00;98.10;;;;;;5032216;28;20532;-68
2021/10/03 09:15:47;;;;;;;5.40;2.40;;;22.20;98.40;;;;;;5032007;28;20226;-69
2021/10/03 09:18:16;;;;;;;4.40;2.80;;;22.30;98.20;;;;;;5031962;28;20340;-67
2021/10/03 09:20:43;;;;;;;4.35;1.98;;;22.30;98.00;;;;;;5031897;28;20211;-67
2021/10/03 09:23:17;;;;;;;2.60;2.00;;;22.30;98.40;;;;;;5032394;28;20206;-68
2021/10/03 09:25:47;;;;;;;5.60;2.67;;;22.20;98.90;;;;;;5036586;28;20240;-65
2021/10/03 09:28:29;;;;;;;5.50;2.15;;;22.20;98.90;;;;;;5037824;28;20206;-65
2021/10/03 09:31:00;;;;;;;3.65;2.15;;;22.20;99.10;;;;;;5034436;28;20210;-65
2021/10/03 09:33:42;;;;;;;4.82;2.35;;;22.30;99.00;;;;;;5033642;28;20717;-65
2021/10/03 09:36:10;;;;;;;4.97;2.35;;;22.20;99.10;;;;;;5032708;28;20213;-66
2021/10/03 09:38:50;;;;;;;4.75;2.60;;;22.30;98.90;;;;;;5032310;28;20272;-67
2021/10/03 09:41:20;;;;;;;2.85;1.95;;;22.30;99.00;;;;;;5031771;28;20209;-69
2021/10/03 09:43:49;;;;;;;3.88;2.25;;;22.40;99.00;;;;;;5031909;28;20225;-67
2021/10/03 09:46:40;;;;;;;5.35;2.47;;;22.30;98.90;;;;;;5031831;28;20654;-67
2021/10/03 09:49:08;;;;;;;6.20;2.60;;;22.30;99.50;;;;;;5031918;28;20309;-67
2021/10/03 09:51:36;;;;;;;6.05;2.28;;;22.20;99.70;;;;;;5032595;28;20206;-67
2021/10/03 09:54:05;;;;;;;4.95;2.50;;;22.10;99.90;;;;;;5031909;28;20701;-67
2021/10/03 09:56:32;;;;;;;3.67;2.30;;;22.00;99.90;;;;;;5031780;28;20690;-68
2021/10/03 09:59:00;;;;;;;5.03;2.00;;;22.00;99.90;;;;;;5031543;28;20206;-68
2021/10/03 10:01:30;;;;;;;3.05;2.08;;;21.80;99.90;;;;;;5031435;28;20586;-68
2021/10/03 10:03:57;;;;;;;4.38;2.30;;;21.80;99.90;;;;;;5031409;28;20222;-67
2021/10/03 10:06:24;;;;;;;4.25;2.38;;;21.80;99.90;;;;;;5031320;28;20274;-68
2021/10/03 10:08:55;;;;;;;3.65;2.22;;;21.80;99.90;;;;;;5031412;28;20700;-67
2021/10/03 10:11:32;;;;;;;4.10;2.58;;;21.80;99.90;;;;;;5031667;28;20210;-66
2021/10/03 10:14:00;;;;;;;3.72;2.30;;;21.80;99.90;;;;;;5031259;28;20234;-70
2021/10/03 10:16:32;;;;;;;5.93;2.08;;;21.80;99.90;;;;;;5031447;28;20214;-72
2021/10/03 10:19:28;;;;;;;2.38;1.90;;;21.70;99.90;;;;;;5031102;28;20206;-67
2021/10/03 10:22:29;;;;;;;2.80;2.30;;;21.70;99.90;;;;;;5031636;28;20210;-74
2021/10/03 10:24:57;;;;;;;4.40;3.60;;;21.60;99.90;;;;;;5030991;28;20260;-66
2021/10/03 10:28:01;;;;;;;4.55;2.33;;;21.60;99.90;;;;;;5031091;28;20302;-66
2021/10/03 10:30:28;;;;;;;5.35;2.15;;;21.60;99.90;;;;;;5031303;28;20206;-65
2021/10/03 10:33:15;;;;;;;2.45;2.10;;;21.60;99.90;;;;;;5030226;28;20826;-65
2021/10/03 10:35:44;;;;;;;4.15;2.05;;;21.70;99.90;;;;;;5030840;28;20266;-65
2021/10/03 10:38:13;;;;;;;4.05;2.50;;;21.80;99.90;;;;;;5031145;28;20466;-65
2021/10/03 10:40:40;;;;;;;2.58;1.85;;;21.70;99.90;;;;;;5031757;28;20236;-65
2021/10/03 10:43:46;;;;;;;7.80;2.50;;;21.80;99.90;;;;;;5031415;28;20210;-65
2021/10/03 10:46:48;;;;;;;3.22;2.10;;;21.90;99.90;;;;;;5028372;28;20210;-68
2021/10/03 10:49:47;;;;;;;3.30;1.95;;;22.00;99.90;;;;;;5032120;28;20212;-65
2021/10/03 10:52:33;;;;;;;2.88;1.95;;;22.10;99.90;;;;;;5032160;28;20209;-66
2021/10/03 10:55:22;;;;;;;3.70;2.45;;;22.20;99.90;;;;;;5030658;28;20454;-66
2021/10/03 10:58:19;;;;;;;5.95;2.25;;;22.30;99.70;;;;;;5018132;28;20234;-66
2021/10/03 11:01:14;;;;;;;2.55;1.98;;;22.40;99.70;;;;;;5030749;28;20238;-68
2021/10/03 11:04:09;;;;;;;2.65;2.00;;;22.50;99.50;;;;;;5030886;28;20251;-67
2021/10/03 11:07:04;;;;;;;2.30;2.10;;;22.40;99.50;;;;;;5030523;28;20222;-67
2021/10/03 11:09:32;;;;;;;3.70;2.35;;;22.40;99.50;;;;;;5030470;28;20206;-67
2021/10/03 11:12:10;;;;;;;3.92;2.40;;;22.50;99.50;;;;;;5030203;28;20654;-66
2021/10/03 11:14:41;;;;;;;3.20;2.17;;;22.60;99.30;;;;;;5030281;28;20237;-67
2021/10/03 11:17:10;;;;;;;2.40;2.20;;;22.70;99.30;;;;;;5030818;28;20215;-67
2021/10/03 11:19:49;;;;;;;2.72;2.13;;;22.80;99.30;;;;;;5030167;28;20216;-67
2021/10/03 11:22:22;;;;;;;5.32;1.88;;;22.80;99.10;;;;;;5030591;28;20216;-67
2021/10/03 11:24:51;;;;;;;3.30;1.90;;;22.90;98.90;;;;;;5030393;28;20226;-67
2021/10/03 11:27:19;;;;;;;2.67;1.80;;;22.90;98.90;;;;;;5030435;28;20206;-67
2021/10/03 11:29:48;;;;;;;3.88;2.50;;;23.00;98.80;;;;;;5030524;28;20206;-67
2021/10/03 11:32:16;;;;;;;4.38;2.40;;;23.00;98.70;;;;;;5031363;28;20217;-67
2021/10/03 11:34:44;;;;;;;3.55;2.17;;;22.90;98.80;;;;;;5029875;28;20713;-67
2021/10/03 11:37:16;;;;;;;3.65;2.33;;;22.80;99.00;;;;;;5030478;28;20218;-67
2021/10/03 11:39:50;;;;;;;3.47;2.63;;;22.70;99.00;;;;;;5030399;28;20206;-67
2021/10/03 11:42:27;;;;;;;4.07;2.60;;;22.70;99.10;;;;;;5030520;28;20585;-67
2021/10/03 11:44:58;;;;;;;10.40;9.30;;;22.70;99.00;;;;;;5032472;28;20225;-66
2021/10/03 11:47:25;;;;;;;3.03;2.50;;;22.80;99.10;;;;;;5033882;28;20210;-67
2021/10/03 11:49:52;;;;;;;3.20;2.60;;;22.90;98.70;;;;;;5033770;28;20217;-66
2021/10/03 11:52:30;;;;;;;5.75;3.70;;;22.90;98.80;;;;;;5033749;28;20297;-67
2021/10/03 11:55:03;;;;;;;2.70;2.45;;;22.90;98.70;;;;;;5033298;28;20229;-66
2021/10/03 11:57:30;;;;;;;6.95;2.40;;;23.00;98.90;;;;;;5033614;28;20301;-67
2021/10/03 12:00:20;;;;;;;3.92;2.30;;;23.00;98.70;;;;;;5033127;28;20720;-66
2021/10/03 12:02:49;;;;;;;4.18;2.10;;;23.00;99.20;;;;;;5033534;28;20268;-66
2021/10/03 12:05:20;;;;;;;4.05;2.28;;;23.00;98.90;;;;;;5033449;28;20229;-67
2021/10/03 12:07:59;;;;;;;3.67;2.25;;;22.90;99.10;;;;;;5033287;28;20670;-67
2021/10/03 12:10:36;;;;;;;2.95;2.20;;;22.80;99.30;;;;;;5033673;28;20209;-67
2021/10/03 12:13:11;;;;;;;3.00;2.60;;;22.80;99.40;;;;;;5033231;28;20233;-67
2021/10/03 12:15:50;;;;;;;4.78;3.58;;;22.80;99.40;;;;;;5032869;28;20318;-67
2021/10/03 12:18:52;;;;;;;5.22;2.72;;;22.80;99.80;;;;;;5033095;28;20210;-67
2021/10/03 12:21:22;;;;;;;4.28;2.90;;;22.60;99.90;;;;;;5033228;28;20264;-67
2021/10/03 12:26:27;;;;;;;3.70;2.97;;;22.50;99.90;;;;;;5074895;22;20233;-57
2021/10/03 12:29:03;;;;;;;6.45;2.90;;;22.40;99.90;;;;;;5053245;28;20209;-55
2021/10/03 12:31:42;;;;;;;5.57;3.20;;;22.30;99.90;;;;;;5053174;28;20201;-55
2021/10/03 12:34:30;;;;;;;3.33;2.88;;;22.20;99.90;;;;;;5052765;28;20304;-56
2021/10/03 12:37:01;;;;;;;3.88;3.08;;;22.20;99.90;;;;;;5052631;28;20206;-55
2021/10/03 12:39:29;;;;;;;3.17;2.80;;;22.30;99.90;;;;;;5052548;28;20210;-56
2021/10/03 12:42:03;;;;;;;4.50;2.60;;;22.40;99.90;;;;;;5053108;28;20217;-55
2021/10/03 12:44:33;;;;;;;2.55;2.25;;;22.30;99.90;;;;;;5052767;28;20233;-55
2021/10/03 12:47:00;;;;;;;2.70;2.30;;;22.20;99.90;;;;;;5052874;28;20229;-55
2021/10/03 12:49:27;;;;;;;5.45;2.63;;;22.00;99.90;;;;;;5052573;28;20206;-56
2021/10/03 12:51:53;;;;;;;4.43;2.35;;;21.90;99.90;;;;;;5052859;28;20201;-57
2021/10/03 12:54:20;;;;;;;4.35;2.20;;;21.80;99.90;;;;;;5052394;28;20717;-56
2021/10/03 12:56:47;;;;;;;4.43;2.13;;;21.90;99.90;;;;;;5051912;28;20619;-54
2021/10/03 12:59:15;;;;;;;3.85;2.17;;;22.00;99.90;;;;;;5052532;28;20275;-56
2021/10/03 13:01:43;;;;;;;2.10;1.90;;;22.20;99.90;;;;;;5052610;28;20206;-57